createdAt,value
2022-08-27T00:02:17.523Z,20.60
2022-08-27T00:09:00.107Z,20.60
2022-08-27T00:15:42.692Z,20.70
2022-08-27T00:22:25.764Z,20.60
2022-08-27T00:29:08.456Z,20.60
2022-08-27T00:35:52.152Z,20.70
2022-08-27T00:42:35.135Z,20.80
2022-08-27T00:49:20.606Z,21.00
2022-08-27T00:56:18.037Z,20.90
2022-08-27T01:03:00.819Z,20.90
2022-08-27T01:09:45.507Z,20.90
2022-08-27T01:16:35.801Z,21.00
2022-08-27T01:23:48.730Z,21.10
2022-08-27T01:30:32.419Z,21.00
2022-08-27T01:37:23.510Z,21.00
2022-08-27T01:44:06.916Z,20.90
2022-08-27T01:50:50.274Z,21.00
2022-08-27T01:57:35.291Z,21.10
2022-08-27T02:04:19.741Z,21.10
2022-08-27T02:11:04.457Z,21.00
2022-08-27T02:17:48.371Z,21.00
2022-08-27T02:24:32.132Z,21.00
2022-08-27T02:31:17.978Z,21.10
2022-08-27T02:38:02.908Z,21.10
2022-08-27T02:44:46.181Z,21.10
2022-08-27T02:51:28.622Z,21.10
2022-08-27T02:58:12.841Z,21.10
2022-08-27T03:04:55.322Z,21.20
2022-08-27T03:11:37.958Z,21.20
2022-08-27T03:18:21.631Z,21.20
2022-08-27T03:25:05.343Z,21.00
2022-08-27T03:31:48.264Z,20.80
2022-08-27T03:38:30.658Z,20.70
2022-08-27T03:45:13.059Z,20.60
2022-08-27T03:51:55.496Z,20.60
2022-08-27T03:58:39.081Z,20.60
2022-08-27T04:05:22.779Z,20.70
2022-08-27T04:12:05.685Z,20.60
2022-08-27T04:18:48.057Z,20.50
2022-08-27T04:25:30.883Z,20.50
2022-08-27T04:32:13.505Z,20.40
2022-08-27T04:38:55.863Z,20.40
2022-08-27T04:45:46.091Z,20.50
2022-08-27T04:52:28.603Z,20.50
2022-08-27T04:59:11.218Z,20.60
2022-08-27T05:05:59.218Z,20.50
2022-08-27T05:12:44.125Z,20.50
2022-08-27T05:26:28.124Z,20.70
2022-08-27T05:33:11.523Z,20.80
2022-08-27T05:39:54.144Z,20.80
2022-08-27T05:46:39.930Z,20.80
2022-08-27T05:53:23.430Z,20.80
2022-08-27T06:00:25.262Z,20.90
2022-08-27T06:07:10.957Z,21.10
2022-08-27T06:13:53.346Z,21.30
2022-08-27T06:20:35.762Z,21.20
2022-08-27T06:27:19.814Z,21.10
2022-08-27T06:34:07.713Z,21.20
2022-08-27T06:40:50.211Z,21.40
2022-08-27T06:47:33.168Z,21.40
2022-08-27T06:54:16.676Z,21.50
2022-08-27T07:00:59.283Z,21.50
2022-08-27T07:07:46.655Z,21.50
2022-08-27T07:14:37.551Z,21.50
2022-08-27T07:21:21.772Z,21.50
2022-08-27T07:28:04.304Z,21.60
2022-08-27T07:34:46.754Z,21.90
2022-08-27T07:41:53.740Z,21.90
2022-08-27T07:48:36.613Z,21.70
2022-08-27T07:55:20.407Z,21.60
2022-08-27T08:02:04.089Z,21.70
2022-08-27T08:08:46.676Z,21.70
2022-08-27T08:15:29.974Z,21.60
2022-08-27T08:22:12.670Z,21.50
2022-08-27T08:28:55.215Z,21.20
2022-08-27T08:35:41.344Z,21.00
2022-08-27T08:42:46.990Z,20.70
2022-08-27T08:49:38.553Z,20.50
2022-08-27T08:56:28.568Z,20.70
2022-08-27T09:03:13.994Z,20.90
2022-08-27T09:10:41.299Z,21.20
2022-08-27T09:17:24.276Z,21.10
2022-08-27T09:24:33.959Z,21.10
2022-08-27T09:31:19.446Z,21.20
2022-08-27T09:38:05.175Z,21.60
2022-08-27T09:44:52.934Z,21.60
2022-08-27T09:51:41.618Z,21.60
2022-08-27T09:58:52.032Z,21.80
2022-08-27T10:05:53.982Z,22.10
2022-08-27T10:12:55.445Z,22.20
2022-08-27T10:19:49.813Z,22.30
2022-08-27T10:26:50.322Z,22.10
2022-08-27T10:34:00.235Z,22.10
2022-08-27T10:40:56.934Z,22.20
2022-08-27T10:48:03.564Z,22.50
2022-08-27T10:54:51.086Z,22.40
2022-08-27T11:01:52.329Z,22.60
2022-08-27T11:08:50.924Z,22.50
2022-08-27T11:15:44.804Z,22.40
2022-08-27T11:22:27.134Z,22.30
2022-08-27T11:29:38.848Z,22.10
2022-08-27T11:36:41.399Z,22.20
2022-08-27T11:43:28.199Z,22.30
2022-08-27T11:50:19.344Z,22.40
2022-08-27T11:57:01.732Z,22.50
2022-08-27T12:03:44.339Z,22.60
2022-08-27T12:10:40.266Z,22.70
2022-08-27T12:17:45.406Z,22.80
2022-08-27T12:24:30.705Z,22.70
2022-08-27T12:31:21.475Z,22.90
2022-08-27T12:38:13.755Z,23.10
2022-08-27T12:44:59.771Z,23.50
2022-08-27T12:51:45.200Z,24.10
2022-08-27T12:58:54.904Z,24.10
2022-08-27T13:05:47.202Z,24.50
2022-08-27T13:12:29.965Z,25.00
2022-08-27T13:19:32.408Z,25.40
2022-08-27T13:26:22.710Z,25.60
2022-08-27T13:33:07.546Z,25.20
2022-08-27T13:39:53.530Z,24.50
2022-08-27T13:46:44.840Z,24.80
2022-08-27T13:53:49.882Z,25.20
2022-08-27T14:00:33.783Z,25.00
2022-08-27T14:07:34.106Z,25.30
2022-08-27T14:14:18.737Z,25.70
2022-08-27T14:21:03.214Z,25.80
2022-08-27T14:27:53.003Z,25.50
2022-08-27T14:34:37.417Z,25.10
2022-08-27T14:41:21.530Z,25.10
2022-08-27T14:48:33.311Z,25.00
2022-08-27T14:55:15.748Z,25.20
2022-08-27T15:01:59.303Z,25.20
2022-08-27T15:08:42.231Z,24.90
2022-08-27T15:15:27.229Z,24.90
2022-08-27T15:22:22.024Z,24.50
2022-08-27T15:29:06.698Z,24.50
2022-08-27T15:35:49.537Z,24.80
2022-08-27T15:42:31.936Z,24.80
2022-08-27T15:49:15.589Z,24.70
2022-08-27T15:55:58.280Z,24.60
2022-08-27T16:02:41.750Z,24.50
2022-08-27T16:09:24.205Z,24.20
2022-08-27T16:16:07.553Z,24.30
2022-08-27T16:22:50.437Z,24.30
2022-08-27T16:29:32.983Z,24.10
2022-08-27T16:36:15.358Z,24.10
2022-08-27T16:42:58.673Z,23.90
2022-08-27T16:50:00.476Z,23.80
2022-08-27T16:56:43.943Z,23.50
2022-08-27T17:03:30.480Z,23.20
2022-08-27T17:10:13.627Z,22.90
2022-08-27T17:16:56.071Z,22.80
2022-08-27T17:23:41.664Z,22.70
2022-08-27T17:30:24.090Z,22.40
2022-08-27T17:37:06.476Z,22.30
2022-08-27T17:43:49.266Z,22.20
2022-08-27T17:50:32.306Z,22.20
2022-08-27T17:57:22.424Z,22.10
2022-08-27T18:04:05.557Z,22.00
2022-08-27T18:10:48.611Z,21.90
2022-08-27T18:17:31.693Z,21.70
2022-08-27T18:24:15.330Z,21.40
2022-08-27T18:30:58.316Z,21.40
2022-08-27T18:37:46.775Z,21.30
2022-08-27T18:44:31.131Z,21.20
2022-08-27T18:51:16.050Z,21.20
2022-08-27T18:57:58.497Z,21.10
2022-08-27T19:04:41.418Z,21.10
2022-08-27T19:11:23.819Z,20.90
2022-08-27T19:18:06.247Z,20.80
2022-08-27T19:24:51.011Z,20.70
2022-08-27T19:31:36.389Z,20.60
2022-08-27T19:38:19.227Z,20.40
2022-08-27T19:45:01.666Z,20.30
2022-08-27T19:51:44.130Z,20.40
2022-08-27T19:58:27.772Z,20.30
2022-08-27T20:05:20.013Z,20.30
2022-08-27T20:12:02.944Z,20.30
2022-08-27T20:18:45.317Z,20.20
2022-08-27T20:25:27.706Z,20.20
2022-08-27T20:32:10.256Z,20.20
2022-08-27T20:38:52.987Z,20.40
2022-08-27T20:45:37.185Z,20.30
2022-08-27T20:52:19.770Z,20.10
2022-08-27T20:59:20.685Z,20.00
2022-08-27T21:06:03.276Z,20.10
2022-08-27T21:12:45.856Z,20.00
2022-08-27T21:19:28.491Z,19.90
2022-08-27T21:26:12.574Z,19.90
2022-08-27T21:32:55.989Z,20.10
2022-08-27T21:39:40.558Z,20.00
2022-08-27T21:46:23.092Z,19.90
2022-08-27T21:53:06.159Z,19.70
2022-08-27T21:59:49.969Z,19.80
2022-08-27T22:06:32.543Z,19.90
2022-08-27T22:13:15.897Z,20.00
2022-08-27T22:19:58.888Z,20.20
2022-08-27T22:26:42.040Z,20.30
2022-08-27T22:33:25.159Z,20.20
2022-08-27T22:40:12.232Z,20.30
2022-08-27T22:47:03.023Z,20.40
2022-08-27T22:53:46.416Z,20.50
2022-08-27T23:00:32.782Z,20.50
2022-08-27T23:07:15.793Z,20.40
2022-08-27T23:14:00.136Z,20.40
2022-08-27T23:20:43.079Z,20.30
2022-08-27T23:27:28.977Z,20.10
2022-08-27T23:34:12.080Z,20.10
2022-08-27T23:40:55.947Z,20.00
2022-08-27T23:47:39.096Z,20.00
2022-08-27T23:54:22.069Z,20.00
